createdAt,value
2018-05-11T00:00:07.891Z,62.10
2018-05-11T00:02:34.384Z,62.20
2018-05-11T00:05:01.656Z,62.30
2018-05-11T00:07:28.791Z,62.40
2018-05-11T00:09:56.907Z,62.50
2018-05-11T00:12:23.489Z,62.40
2018-05-11T00:14:49.903Z,62.50
2018-05-11T00:17:16.298Z,62.60
2018-05-11T00:19:42.679Z,62.80
2018-05-11T00:22:09.068Z,62.50
2018-05-11T00:24:35.530Z,62.60
2018-05-11T00:27:02.062Z,63.10
2018-05-11T00:29:28.769Z,62.80
2018-05-11T00:31:55.173Z,62.90
2018-05-11T00:34:22.385Z,62.90
2018-05-11T00:36:48.810Z,62.90
2018-05-11T00:39:15.323Z,62.60
2018-05-11T00:41:41.802Z,63.00
2018-05-11T00:44:08.339Z,63.30
2018-05-11T00:46:34.741Z,63.60
2018-05-11T00:49:01.162Z,65.10
2018-05-11T00:51:27.631Z,64.30
2018-05-11T00:53:54.037Z,65.30
2018-05-11T00:56:20.423Z,65.80
2018-05-11T00:58:47.020Z,65.60
2018-05-11T01:01:13.397Z,65.80
2018-05-11T01:03:40.685Z,65.00
2018-05-11T01:06:07.938Z,65.00
2018-05-11T01:08:34.443Z,65.00
2018-05-11T01:11:01.686Z,65.50
2018-05-11T01:13:28.293Z,65.40
2018-05-11T01:15:54.717Z,65.70
2018-05-11T01:18:21.281Z,64.00
2018-05-11T01:20:47.643Z,63.50
2018-05-11T01:23:14.829Z,64.20
2018-05-11T01:25:41.454Z,64.20
2018-05-11T01:28:08.189Z,64.00
2018-05-11T01:30:34.935Z,63.90
2018-05-11T01:33:01.402Z,63.80
2018-05-11T01:35:27.914Z,63.60
2018-05-11T01:37:54.342Z,64.30
2018-05-11T01:40:21.062Z,64.30
2018-05-11T01:42:47.449Z,64.60
2018-05-11T01:45:13.989Z,65.00
2018-05-11T01:47:40.389Z,65.20
2018-05-11T01:50:06.810Z,65.60
2018-05-11T01:52:33.258Z,65.40
2018-05-11T01:54:59.734Z,65.80
2018-05-11T01:57:26.885Z,66.30
2018-05-11T01:59:54.095Z,66.70
2018-05-11T02:02:20.472Z,66.60
2018-05-11T02:04:47.737Z,67.40
2018-05-11T02:07:14.963Z,67.60
2018-05-11T02:09:41.393Z,67.50
2018-05-11T02:12:07.798Z,67.10
2018-05-11T02:14:34.200Z,67.80
2018-05-11T02:17:00.620Z,68.00
2018-05-11T02:19:27.773Z,68.60
2018-05-11T02:21:54.207Z,68.50
2018-05-11T02:24:20.638Z,68.70
2018-05-11T02:26:47.903Z,69.40
2018-05-11T02:29:14.398Z,69.40
2018-05-11T02:31:40.811Z,70.20
2018-05-11T02:34:07.242Z,70.20
2018-05-11T02:36:33.716Z,71.00
2018-05-11T02:39:00.667Z,71.00
2018-05-11T02:41:27.174Z,70.90
2018-05-11T02:43:53.749Z,70.50
2018-05-11T02:46:20.245Z,71.20
2018-05-11T02:48:46.721Z,71.10
2018-05-11T02:51:13.172Z,71.00
2018-05-11T02:53:39.617Z,71.00
2018-05-11T02:56:06.829Z,71.10
2018-05-11T02:58:33.250Z,71.00
2018-05-11T03:01:00.381Z,71.10
2018-05-11T03:03:26.848Z,71.10
2018-05-11T03:05:53.267Z,71.10
2018-05-11T03:08:20.449Z,71.40
2018-05-11T03:10:46.887Z,71.50
2018-05-11T03:13:13.325Z,71.20
2018-05-11T03:15:39.847Z,71.60
2018-05-11T03:18:06.362Z,72.10
2018-05-11T03:20:32.830Z,71.70
2018-05-11T03:22:59.337Z,71.20
2018-05-11T03:25:25.792Z,71.40
2018-05-11T03:27:52.229Z,71.30
2018-05-11T03:30:18.786Z,71.60
2018-05-11T03:32:46.740Z,71.90
2018-05-11T03:35:13.187Z,71.90
2018-05-11T03:37:39.690Z,72.60
2018-05-11T03:40:06.123Z,72.80
2018-05-11T03:42:32.621Z,73.00
2018-05-11T03:44:59.807Z,73.10
2018-05-11T03:47:26.236Z,73.00
2018-05-11T03:49:52.680Z,73.00
2018-05-11T03:52:19.146Z,73.10
2018-05-11T03:54:45.561Z,73.00
2018-05-11T03:57:11.992Z,72.70
2018-05-11T03:59:38.431Z,72.60
2018-05-11T04:02:23.542Z,72.40
2018-05-11T04:05:09.065Z,72.20
2018-05-11T04:07:54.766Z,72.30
2018-05-11T04:10:21.291Z,72.80
2018-05-11T04:12:47.726Z,72.40
2018-05-11T04:15:14.117Z,72.60
2018-05-11T04:17:41.310Z,72.60
2018-05-11T04:20:08.005Z,72.10
2018-05-11T04:22:35.140Z,73.20
2018-05-11T04:25:02.349Z,72.30
2018-05-11T04:27:28.779Z,72.40
2018-05-11T04:29:56.071Z,72.30
2018-05-11T04:32:24.005Z,71.60
2018-05-11T04:34:51.130Z,71.60
2018-05-11T04:37:17.933Z,71.10
2018-05-11T04:39:44.722Z,71.00
2018-05-11T04:42:11.182Z,71.00
2018-05-11T04:44:38.367Z,71.10
2018-05-11T04:47:05.531Z,71.10
2018-05-11T04:49:32.021Z,71.10
2018-05-11T04:51:58.534Z,70.70
2018-05-11T04:54:24.981Z,70.10
2018-05-11T04:56:51.474Z,70.40
2018-05-11T04:59:25.223Z,70.70
2018-05-11T05:01:51.654Z,70.70
2018-05-11T05:04:18.163Z,70.20
2018-05-11T05:06:44.601Z,70.20
2018-05-11T05:09:11.032Z,69.10
2018-05-11T05:11:37.515Z,68.40
2018-05-11T05:14:04.726Z,67.70
2018-05-11T05:16:31.169Z,67.70
2018-05-11T05:18:57.959Z,67.40
2018-05-11T05:21:25.210Z,67.50
2018-05-11T05:23:53.561Z,67.40
2018-05-11T05:26:20.085Z,67.30
2018-05-11T05:28:46.499Z,66.90
2018-05-11T05:31:12.954Z,67.00
2018-05-11T05:33:39.469Z,66.50
2018-05-11T05:36:06.407Z,66.60
2018-05-11T05:38:33.090Z,66.30
2018-05-11T05:41:00.236Z,65.80
2018-05-11T05:43:26.699Z,65.80
2018-05-11T05:45:53.959Z,65.30
2018-05-11T05:48:21.133Z,64.80
2018-05-11T05:50:47.531Z,64.70
2018-05-11T05:53:14.742Z,64.40
2018-05-11T05:55:41.296Z,64.10
2018-05-11T05:58:08.478Z,63.80
2018-05-11T06:00:34.961Z,63.80
2018-05-11T06:03:01.400Z,63.90
2018-05-11T06:05:27.899Z,63.30
2018-05-11T06:07:54.280Z,63.60
2018-05-11T06:10:21.432Z,63.10
2018-05-11T06:12:48.642Z,62.30
2018-05-11T06:15:15.035Z,62.90
2018-05-11T06:17:42.553Z,62.20
2018-05-11T06:20:08.937Z,62.20
2018-05-11T06:22:35.772Z,62.00
2018-05-11T06:25:02.169Z,61.30
2018-05-11T06:27:28.647Z,60.90
2018-05-11T06:29:55.044Z,61.20
2018-05-11T06:32:21.805Z,60.90
2018-05-11T06:34:48.187Z,59.70
2018-05-11T06:37:14.913Z,59.90
2018-05-11T06:39:41.617Z,60.00
2018-05-11T06:42:08.911Z,58.70
2018-05-11T06:44:36.095Z,58.60
2018-05-11T06:47:02.613Z,58.30
2018-05-11T06:49:29.398Z,57.80
2018-05-11T06:51:55.999Z,57.80
2018-05-11T06:54:22.534Z,57.70
2018-05-11T06:56:49.771Z,57.20
2018-05-11T06:59:16.359Z,56.90
2018-05-11T07:01:42.860Z,57.00
2018-05-11T07:04:09.304Z,56.80
2018-05-11T07:06:36.446Z,56.00
2018-05-11T07:09:03.599Z,56.00
2018-05-11T07:11:31.288Z,55.90
2018-05-11T07:13:58.459Z,56.50
2018-05-11T07:16:24.967Z,54.90
2018-05-11T07:18:52.262Z,55.10
2018-05-11T07:21:18.957Z,55.10
2018-05-11T07:23:45.433Z,55.00
2018-05-11T07:26:12.650Z,54.30
2018-05-11T07:28:39.088Z,54.60
2018-05-11T07:31:05.611Z,54.50
2018-05-11T07:33:32.839Z,54.90
2018-05-11T07:36:00.818Z,54.70
2018-05-11T07:38:28.096Z,54.30
2018-05-11T07:40:54.535Z,54.30
2018-05-11T07:43:21.107Z,54.30
2018-05-11T07:45:48.214Z,54.50
2018-05-11T07:48:14.714Z,54.50
2018-05-11T07:50:41.972Z,53.20
2018-05-11T07:53:09.117Z,52.90
2018-05-11T07:55:35.682Z,53.60
2018-05-11T07:58:03.141Z,52.40
2018-05-11T08:00:30.360Z,52.40
2018-05-11T08:02:57.631Z,51.30
2018-05-11T08:05:24.298Z,51.10
2018-05-11T08:07:50.832Z,51.40
2018-05-11T08:10:17.392Z,50.30
2018-05-11T08:12:44.104Z,49.80
2018-05-11T08:15:10.586Z,49.80
2018-05-11T08:17:37.072Z,50.40
2018-05-11T08:20:03.526Z,50.30
2018-05-11T08:22:30.081Z,49.30
2018-05-11T08:24:56.624Z,50.10
2018-05-11T08:27:23.415Z,48.70
2018-05-11T08:29:51.388Z,49.40
2018-05-11T08:32:18.449Z,49.40
2018-05-11T08:34:45.127Z,48.80
2018-05-11T08:37:12.450Z,47.80
2018-05-11T08:39:39.746Z,47.90
2018-05-11T08:42:06.227Z,48.30
2018-05-11T08:44:32.973Z,48.70
2018-05-11T08:47:00.024Z,48.60
2018-05-11T08:49:26.718Z,48.80
2018-05-11T08:51:54.243Z,45.60
2018-05-11T08:54:21.133Z,45.50
2018-05-11T08:56:47.652Z,44.60
2018-05-11T08:59:14.390Z,44.20
2018-05-11T09:01:41.150Z,44.50
2018-05-11T09:04:07.961Z,42.90
2018-05-11T09:06:35.100Z,43.10
2018-05-11T09:09:01.560Z,43.10
2018-05-11T09:11:29.043Z,42.90
2018-05-11T09:13:56.715Z,42.90
2018-05-11T09:16:24.518Z,43.20
2018-05-11T09:18:51.111Z,42.40
2018-05-11T09:21:17.598Z,43.00
2018-05-11T09:23:45.301Z,42.90
2018-05-11T09:26:12.835Z,43.20
2018-05-11T09:28:39.405Z,43.40
2018-05-11T09:31:06.353Z,43.00
2018-05-11T09:33:32.750Z,42.60
2018-05-11T09:36:00.538Z,42.20
2018-05-11T09:38:27.209Z,41.90
2018-05-11T09:40:53.698Z,42.60
2018-05-11T09:43:20.164Z,42.60
2018-05-11T09:45:46.548Z,42.50
2018-05-11T09:48:13.664Z,43.90
2018-05-11T09:50:40.222Z,42.80
2018-05-11T09:53:08.189Z,43.70
2018-05-11T09:55:35.428Z,43.30
2018-05-11T09:58:01.797Z,43.40
2018-05-11T10:00:28.418Z,42.90
2018-05-11T10:02:54.914Z,42.50
2018-05-11T10:05:21.355Z,42.20
2018-05-11T10:07:47.986Z,41.50
2018-05-11T10:10:14.691Z,40.80
2018-05-11T10:12:41.159Z,40.80
2018-05-11T10:15:07.614Z,40.40
2018-05-11T10:17:34.114Z,38.80
2018-05-11T10:20:00.516Z,37.30
2018-05-11T10:22:28.271Z,34.90
2018-05-11T10:24:55.434Z,34.00
2018-05-11T10:27:22.177Z,33.90
2018-05-11T10:29:48.697Z,33.00
2018-05-11T10:32:16.173Z,34.00
2018-05-11T10:34:42.617Z,34.10
2018-05-11T10:37:09.226Z,32.80
2018-05-11T10:39:36.432Z,32.70
2018-05-11T10:42:02.862Z,32.70
2018-05-11T10:44:29.357Z,32.50
2018-05-11T10:46:55.789Z,33.60
2018-05-11T10:49:22.392Z,32.70
2018-05-11T10:51:49.682Z,32.40
2018-05-11T10:54:16.169Z,31.00
2018-05-11T10:56:42.571Z,33.50
2018-05-11T10:59:09.114Z,34.00
2018-05-11T11:01:35.632Z,34.30
2018-05-11T11:04:02.099Z,34.60
2018-05-11T11:06:28.540Z,35.20
2018-05-11T11:08:54.981Z,35.40
2018-05-11T11:11:21.453Z,34.90
2018-05-11T11:13:48.200Z,34.50
2018-05-11T11:16:14.709Z,34.90
2018-05-11T11:18:42.021Z,33.10
2018-05-11T11:21:08.460Z,33.00
2018-05-11T11:23:34.897Z,32.50
2018-05-11T11:26:01.965Z,32.60
2018-05-11T11:28:28.409Z,32.80
2018-05-11T11:30:56.671Z,33.10
2018-05-11T11:33:23.822Z,33.20
2018-05-11T11:35:51.155Z,33.10
2018-05-11T11:38:17.652Z,32.90
2018-05-11T11:40:44.115Z,31.80
2018-05-11T11:43:10.642Z,30.80
2018-05-11T11:45:37.110Z,31.00
2018-05-11T11:48:03.722Z,31.00
2018-05-11T11:50:30.255Z,31.20
2018-05-11T11:52:56.662Z,31.50
2018-05-11T11:55:23.051Z,31.40
2018-05-11T11:57:49.595Z,31.30
2018-05-11T12:00:16.872Z,31.20
2018-05-11T12:02:43.348Z,31.20
2018-05-11T12:05:10.155Z,31.30
2018-05-11T12:07:36.587Z,31.30
2018-05-11T12:10:03.035Z,29.30
2018-05-11T12:12:29.748Z,29.70
2018-05-11T12:14:56.163Z,30.10
2018-05-11T12:17:24.206Z,29.90
2018-05-11T12:19:50.935Z,29.90
2018-05-11T12:22:17.352Z,30.00
2018-05-11T12:24:43.788Z,30.00
2018-05-11T12:27:10.290Z,29.30
2018-05-11T12:29:37.333Z,29.50
2018-05-11T12:32:06.129Z,29.30
2018-05-11T12:34:32.829Z,29.30
2018-05-11T12:36:59.332Z,29.50
2018-05-11T12:39:25.863Z,29.90
2018-05-11T12:41:52.296Z,30.20
2018-05-11T12:44:18.756Z,29.50
2018-05-11T12:46:45.221Z,29.50
2018-05-11T12:49:12.390Z,29.80
2018-05-11T12:51:40.153Z,30.40
2018-05-11T12:54:06.642Z,30.40
2018-05-11T12:56:33.090Z,30.00
2018-05-11T12:59:00.491Z,30.60
2018-05-11T13:01:26.968Z,30.20
2018-05-11T13:03:53.507Z,30.40
2018-05-11T13:06:20.214Z,30.70
2018-05-11T13:08:47.159Z,29.80
2018-05-11T13:11:13.881Z,29.70
2018-05-11T13:13:40.942Z,30.20
2018-05-11T13:16:07.480Z,29.70
2018-05-11T13:18:34.334Z,29.70
2018-05-11T13:21:01.729Z,29.70
2018-05-11T13:23:28.941Z,29.60
2018-05-11T13:25:55.385Z,28.90
2018-05-11T13:28:22.226Z,29.40
2018-05-11T13:30:48.874Z,28.80
2018-05-11T13:33:15.298Z,28.70
2018-05-11T13:35:42.601Z,28.10
2018-05-11T13:38:09.100Z,27.60
2018-05-11T13:40:36.420Z,29.60
2018-05-11T13:43:03.270Z,29.10
2018-05-11T13:45:29.753Z,29.50
2018-05-11T13:47:56.140Z,29.70
2018-05-11T13:50:22.607Z,29.00
2018-05-11T13:52:49.759Z,27.90
2018-05-11T13:55:17.120Z,26.80
2018-05-11T13:57:44.769Z,25.80
2018-05-11T14:00:12.196Z,24.90
2018-05-11T14:02:38.653Z,24.90
2018-05-11T14:05:05.998Z,24.50
2018-05-11T14:07:32.419Z,24.40
2018-05-11T14:09:59.740Z,23.80
2018-05-11T14:12:26.414Z,22.90
2018-05-11T14:14:52.832Z,23.10
2018-05-11T14:17:19.529Z,23.20
2018-05-11T14:19:46.874Z,25.30
2018-05-11T14:22:14.061Z,25.40
2018-05-11T14:24:40.575Z,25.40
2018-05-11T14:27:07.058Z,26.30
2018-05-11T14:29:34.753Z,26.40
2018-05-11T14:32:01.994Z,28.00
2018-05-11T14:34:28.305Z,27.90
2018-05-11T14:36:54.728Z,29.40
2018-05-11T14:39:21.300Z,29.50
2018-05-11T14:41:47.824Z,29.80
2018-05-11T14:44:15.022Z,30.20
2018-05-11T14:46:42.233Z,30.40
2018-05-11T14:49:09.704Z,31.40
2018-05-11T14:51:36.821Z,30.60
2018-05-11T14:54:03.269Z,30.40
2018-05-11T14:56:29.801Z,30.70
2018-05-11T14:58:56.631Z,30.80
2018-05-11T15:01:23.140Z,30.50
2018-05-11T15:03:49.841Z,30.70
2018-05-11T15:06:16.977Z,29.70
2018-05-11T15:08:44.260Z,28.20
2018-05-11T15:11:10.985Z,28.20
2018-05-11T15:13:37.651Z,27.50
2018-05-11T15:16:04.170Z,27.40
2018-05-11T15:18:30.641Z,26.60
2018-05-11T15:20:57.092Z,27.50
2018-05-11T15:23:23.773Z,28.10
2018-05-11T15:25:51.091Z,28.70
2018-05-11T15:28:17.699Z,28.70
2018-05-11T15:30:44.429Z,29.90
2018-05-11T15:33:11.040Z,29.60
2018-05-11T15:35:37.439Z,30.60
2018-05-11T15:38:04.578Z,31.50
2018-05-11T15:40:31.112Z,31.40
2018-05-11T15:42:57.692Z,31.60
2018-05-11T15:45:24.859Z,32.30
2018-05-11T15:47:51.486Z,32.20
2018-05-11T15:50:17.917Z,32.10
2018-05-11T15:52:44.380Z,32.60
2018-05-11T15:55:11.096Z,31.80
2018-05-11T15:57:38.304Z,30.60
2018-05-11T16:00:05.508Z,27.40
2018-05-11T16:02:32.221Z,27.00
2018-05-11T16:04:58.858Z,26.80
2018-05-11T16:07:26.022Z,26.50
2018-05-11T16:09:52.798Z,27.00
2018-05-11T16:12:20.972Z,27.60
2018-05-11T16:14:47.522Z,27.60
2018-05-11T16:17:13.936Z,28.70
2018-05-11T16:19:40.540Z,29.80
2018-05-11T16:22:07.290Z,30.40
2018-05-11T16:24:33.850Z,30.80
2018-05-11T16:27:00.567Z,30.40
2018-05-11T16:29:29.368Z,29.90
2018-05-11T16:31:56.144Z,29.90
2018-05-11T16:34:23.567Z,28.60
2018-05-11T16:36:50.207Z,28.70
2018-05-11T16:39:18.674Z,28.90
2018-05-11T16:41:45.388Z,28.60
2018-05-11T16:44:13.054Z,27.30
2018-05-11T16:46:39.525Z,27.20
2018-05-11T16:49:06.183Z,26.90
2018-05-11T16:51:32.886Z,26.60
2018-05-11T16:53:59.589Z,27.70
2018-05-11T16:56:27.002Z,28.60
2018-05-11T16:58:53.965Z,28.50
2018-05-11T17:01:20.924Z,28.30
2018-05-11T17:03:48.074Z,28.70
2018-05-11T17:06:15.567Z,28.70
2018-05-11T17:08:42.048Z,28.60
2018-05-11T17:11:08.531Z,28.80
2018-05-11T17:13:35.261Z,28.60
2018-05-11T17:16:02.447Z,28.50
2018-05-11T17:18:28.953Z,28.50
2018-05-11T17:20:56.128Z,29.00
2018-05-11T17:23:22.533Z,29.10
2018-05-11T17:25:49.003Z,29.50
2018-05-11T17:28:15.391Z,29.50
2018-05-11T17:30:42.617Z,29.20
2018-05-11T17:33:09.290Z,29.10
2018-05-11T17:35:36.528Z,28.50
2018-05-11T17:38:03.841Z,29.10
2018-05-11T17:40:30.271Z,29.10
2018-05-11T17:42:56.722Z,29.90
2018-05-11T17:45:23.183Z,29.80
2018-05-11T17:47:50.598Z,31.80
2018-05-11T17:50:17.144Z,31.70
2018-05-11T17:52:44.300Z,32.80
2018-05-11T17:55:10.777Z,32.80
2018-05-11T17:57:37.210Z,33.70
2018-05-11T18:00:03.678Z,33.70
2018-05-11T18:02:30.104Z,34.60
2018-05-11T18:04:56.498Z,35.00
2018-05-11T18:07:23.654Z,36.00
2018-05-11T18:09:50.809Z,36.50
2018-05-11T18:12:17.215Z,36.40
2018-05-11T18:14:44.452Z,36.60
2018-05-11T18:17:10.824Z,36.60
2018-05-11T18:19:37.302Z,36.50
2018-05-11T18:22:03.781Z,37.20
2018-05-11T18:24:30.179Z,37.70
2018-05-11T18:26:56.579Z,37.80
2018-05-11T18:29:22.981Z,37.60
2018-05-11T18:31:49.423Z,38.70
2018-05-11T18:34:15.965Z,39.10
2018-05-11T18:36:44.609Z,39.60
2018-05-11T18:39:11.125Z,40.00
2018-05-11T18:41:37.536Z,40.90
2018-05-11T18:44:04.083Z,41.20
2018-05-11T18:46:31.586Z,41.20
2018-05-11T18:48:58.741Z,42.00
2018-05-11T18:51:25.767Z,41.90
2018-05-11T18:53:57.235Z,42.90
2018-05-11T18:56:24.715Z,43.30
2018-05-11T18:58:51.091Z,43.00
2018-05-11T19:01:18.265Z,43.50
2018-05-11T19:03:44.800Z,43.50
2018-05-11T19:06:11.185Z,44.00
2018-05-11T19:08:37.655Z,44.00
2018-05-11T19:11:04.319Z,44.30
2018-05-11T19:13:31.161Z,44.60
2018-05-11T19:15:57.577Z,45.00
2018-05-11T19:18:24.833Z,45.10
2018-05-11T19:20:51.963Z,45.70
2018-05-11T19:23:18.686Z,45.70
2018-05-11T19:25:45.156Z,45.60
2018-05-11T19:28:12.580Z,46.20
2018-05-11T19:30:39.051Z,46.10
2018-05-11T19:33:06.887Z,46.10
2018-05-11T19:35:33.487Z,46.00
2018-05-11T19:38:00.068Z,46.30
2018-05-11T19:40:26.662Z,46.50
2018-05-11T19:42:53.041Z,46.90
2018-05-11T19:45:19.389Z,47.30
2018-05-11T19:47:46.665Z,48.00
2018-05-11T19:50:13.130Z,48.10
2018-05-11T19:52:39.630Z,47.80
2018-05-11T19:55:06.884Z,48.40
2018-05-11T19:57:34.567Z,48.60
2018-05-11T20:00:01.112Z,48.40
2018-05-11T20:02:27.651Z,48.70
2018-05-11T20:04:54.071Z,48.60
2018-05-11T20:07:20.586Z,48.90
2018-05-11T20:09:47.545Z,49.00
2018-05-11T20:12:13.976Z,49.00
2018-05-11T20:14:40.477Z,49.20
2018-05-11T20:17:07.669Z,49.70
2018-05-11T20:19:34.078Z,49.60
2018-05-11T20:22:00.562Z,50.20
2018-05-11T20:24:26.998Z,50.00
2018-05-11T20:26:54.210Z,50.50
2018-05-11T20:29:20.722Z,50.50
2018-05-11T20:31:47.874Z,50.50
2018-05-11T20:34:14.413Z,50.50
2018-05-11T20:36:40.931Z,50.70
2018-05-11T20:39:08.130Z,51.20
2018-05-11T20:41:36.259Z,51.20
2018-05-11T20:44:02.734Z,51.50
2018-05-11T20:46:29.274Z,51.70
2018-05-11T20:48:55.714Z,51.80
2018-05-11T20:51:22.193Z,52.20
2018-05-11T20:53:49.422Z,52.50
2018-05-11T20:56:16.001Z,52.40
2018-05-11T20:58:42.574Z,52.70
2018-05-11T21:01:09.857Z,53.50
2018-05-11T21:03:37.350Z,53.40
2018-05-11T21:06:03.829Z,53.30
2018-05-11T21:08:30.324Z,53.60
2018-05-11T21:10:56.814Z,53.50
2018-05-11T21:13:24.672Z,54.00
2018-05-11T21:15:52.105Z,54.00
2018-05-11T21:18:18.616Z,54.50
2018-05-11T21:20:45.180Z,54.60
2018-05-11T21:23:12.209Z,54.70
2018-05-11T21:25:38.710Z,54.80
2018-05-11T21:28:05.294Z,54.80
2018-05-11T21:30:31.809Z,54.70
2018-05-11T21:32:58.408Z,54.90
2018-05-11T21:35:25.622Z,55.60
2018-05-11T21:37:52.182Z,54.90
2018-05-11T21:40:18.819Z,55.00
2018-05-11T21:42:46.040Z,55.80
2018-05-11T21:45:12.522Z,55.70
2018-05-11T21:47:39.274Z,56.20
2018-05-11T21:50:05.815Z,56.40
2018-05-11T21:52:32.412Z,56.60
2018-05-11T21:54:59.161Z,56.70
2018-05-11T21:57:26.585Z,57.20
2018-05-11T21:59:53.050Z,57.10
2018-05-11T22:02:20.204Z,57.30
2018-05-11T22:04:47.504Z,57.30
2018-05-11T22:07:13.976Z,57.20
2018-05-11T22:09:41.199Z,57.60
2018-05-11T22:12:07.618Z,57.60
2018-05-11T22:14:34.030Z,57.50
2018-05-11T22:17:00.551Z,57.80
2018-05-11T22:19:27.670Z,57.90
2018-05-11T22:21:54.142Z,57.90
2018-05-11T22:24:20.529Z,57.90
2018-05-11T22:26:46.920Z,58.20
2018-05-11T22:29:13.483Z,58.90
2018-05-11T22:31:39.939Z,58.80
2018-05-11T22:34:06.389Z,58.80
2018-05-11T22:36:33.527Z,58.90
2018-05-11T22:39:00.104Z,58.90
2018-05-11T22:41:26.588Z,58.80
2018-05-11T22:43:53.132Z,59.10
2018-05-11T22:46:20.362Z,59.50
2018-05-11T22:48:47.269Z,59.50
2018-05-11T22:51:13.691Z,59.60
2018-05-11T22:53:40.877Z,59.90
2018-05-11T22:56:07.407Z,59.90
2018-05-11T22:58:33.842Z,60.20
2018-05-11T23:01:00.636Z,60.30
2018-05-11T23:03:28.250Z,60.60
2018-05-11T23:05:54.715Z,60.40
2018-05-11T23:08:21.935Z,60.80
2018-05-11T23:10:48.647Z,60.80
2018-05-11T23:13:15.938Z,60.80
2018-05-11T23:15:42.464Z,60.80
2018-05-11T23:18:08.922Z,60.90
2018-05-11T23:20:35.600Z,61.00
2018-05-11T23:23:02.014Z,60.50
2018-05-11T23:25:29.197Z,61.10
2018-05-11T23:27:55.650Z,61.00
2018-05-11T23:30:22.363Z,61.00
2018-05-11T23:32:48.867Z,61.30
2018-05-11T23:35:16.000Z,61.60
2018-05-11T23:37:43.881Z,61.90
2018-05-11T23:40:11.037Z,61.90
2018-05-11T23:42:38.411Z,62.40
2018-05-11T23:45:04.819Z,62.00
2018-05-11T23:47:31.249Z,62.30
2018-05-11T23:49:57.721Z,62.50
2018-05-11T23:52:24.627Z,63.10
2018-05-11T23:54:52.095Z,62.70
2018-05-11T23:57:18.759Z,63.20
2018-05-11T23:59:45.474Z,63.30
